sensor_id;sensor_type;location;lat;lon;timestamp;P1;durP1;ratioP1;P2;durP2;ratioP2
55330;SDS011;58851;42.984;20.336;2023-05-17T00:02:07;28.48;;;16.65;;
55330;SDS011;58851;42.984;20.336;2023-05-17T00:04:32;34.35;;;20.58;;
55330;SDS011;58851;42.984;20.336;2023-05-17T00:06:58;38.15;;;18.10;;
55330;SDS011;58851;42.984;20.336;2023-05-17T00:09:24;40.35;;;18.95;;
55330;SDS011;58851;42.984;20.336;2023-05-17T00:11:50;45.10;;;25.77;;
55330;SDS011;58851;42.984;20.336;2023-05-17T00:14:15;43.70;;;23.60;;
55330;SDS011;58851;42.984;20.336;2023-05-17T00:16:41;35.45;;;17.33;;
55330;SDS011;58851;42.984;20.336;2023-05-17T00:19:07;27.88;;;14.93;;
55330;SDS011;58851;42.984;20.336;2023-05-17T00:21:35;32.85;;;16.00;;
55330;SDS011;58851;42.984;20.336;2023-05-17T00:24:02;50.60;;;33.28;;
55330;SDS011;58851;42.984;20.336;2023-05-17T00:26:27;38.95;;;18.02;;
55330;SDS011;58851;42.984;20.336;2023-05-17T00:28:53;24.15;;;11.98;;
55330;SDS011;58851;42.984;20.336;2023-05-17T00:31:19;33.08;;;13.18;;
55330;SDS011;58851;42.984;20.336;2023-05-17T00:33:45;28.13;;;17.10;;
55330;SDS011;58851;42.984;20.336;2023-05-17T00:36:11;21.67;;;13.82;;
55330;SDS011;58851;42.984;20.336;2023-05-17T00:38:37;23.92;;;13.65;;
55330;SDS011;58851;42.984;20.336;2023-05-17T00:41:03;21.08;;;13.68;;
55330;SDS011;58851;42.984;20.336;2023-05-17T00:43:29;31.40;;;15.57;;
55330;SDS011;58851;42.984;20.336;2023-05-17T00:45:55;24.88;;;14.43;;
55330;SDS011;58851;42.984;20.336;2023-05-17T00:48:20;30.98;;;15.18;;
55330;SDS011;58851;42.984;20.336;2023-05-17T00:50:49;27.23;;;15.65;;
55330;SDS011;58851;42.984;20.336;2023-05-17T00:53:19;24.58;;;16.73;;
55330;SDS011;58851;42.984;20.336;2023-05-17T00:55:45;42.53;;;18.45;;
55330;SDS011;58851;42.984;20.336;2023-05-17T00:58:11;18.30;;;13.65;;
55330;SDS011;58851;42.984;20.336;2023-05-17T01:00:38;18.42;;;11.48;;
55330;SDS011;58851;42.984;20.336;2023-05-17T01:03:05;21.33;;;10.65;;
55330;SDS011;58851;42.984;20.336;2023-05-17T01:05:31;24.15;;;12.82;;
55330;SDS011;58851;42.984;20.336;2023-05-17T01:07:57;21.27;;;12.00;;
55330;SDS011;58851;42.984;20.336;2023-05-17T01:10:23;22.58;;;13.50;;
55330;SDS011;58851;42.984;20.336;2023-05-17T01:13:17;21.15;;;11.05;;
55330;SDS011;58851;42.984;20.336;2023-05-17T01:18:38;21.77;;;12.52;;
55330;SDS011;58851;42.984;20.336;2023-05-17T01:24:27;24.60;;;13.73;;
55330;SDS011;58851;42.984;20.336;2023-05-17T01:26:58;18.02;;;8.95;;
55330;SDS011;58851;42.984;20.336;2023-05-17T01:29:25;13.80;;;7.70;;
55330;SDS011;58851;42.984;20.336;2023-05-17T01:31:55;14.10;;;9.02;;
55330;SDS011;58851;42.984;20.336;2023-05-17T01:34:25;25.80;;;10.07;;
55330;SDS011;58851;42.984;20.336;2023-05-17T01:36:52;18.30;;;9.65;;
55330;SDS011;58851;42.984;20.336;2023-05-17T01:39:17;21.60;;;10.35;;
55330;SDS011;58851;42.984;20.336;2023-05-17T01:41:46;28.67;;;11.55;;
55330;SDS011;58851;42.984;20.336;2023-05-17T01:44:30;31.08;;;12.38;;
55330;SDS011;58851;42.984;20.336;2023-05-17T01:47:08;31.15;;;17.88;;
55330;SDS011;58851;42.984;20.336;2023-05-17T01:49:38;35.15;;;18.23;;
55330;SDS011;58851;42.984;20.336;2023-05-17T01:52:16;30.23;;;16.33;;
55330;SDS011;58851;42.984;20.336;2023-05-17T01:57:34;27.65;;;12.93;;
55330;SDS011;58851;42.984;20.336;2023-05-17T02:00:03;21.98;;;10.20;;
55330;SDS011;58851;42.984;20.336;2023-05-17T02:02:32;25.35;;;11.20;;
55330;SDS011;58851;42.984;20.336;2023-05-17T02:04:57;35.60;;;13.32;;
55330;SDS011;58851;42.984;20.336;2023-05-17T02:07:23;26.05;;;9.88;;
55330;SDS011;58851;42.984;20.336;2023-05-17T02:09:49;23.23;;;10.15;;
55330;SDS011;58851;42.984;20.336;2023-05-17T02:12:15;22.40;;;9.05;;
55330;SDS011;58851;42.984;20.336;2023-05-17T02:14:41;18.73;;;9.07;;
55330;SDS011;58851;42.984;20.336;2023-05-17T02:17:06;21.38;;;8.73;;
55330;SDS011;58851;42.984;20.336;2023-05-17T02:19:32;20.27;;;7.63;;
55330;SDS011;58851;42.984;20.336;2023-05-17T02:21:58;19.52;;;7.35;;
55330;SDS011;58851;42.984;20.336;2023-05-17T02:24:24;99.78;;;12.10;;
55330;SDS011;58851;42.984;20.336;2023-05-17T02:26:50;18.95;;;7.40;;
55330;SDS011;58851;42.984;20.336;2023-05-17T02:29:16;15.60;;;8.73;;
55330;SDS011;58851;42.984;20.336;2023-05-17T02:31:41;56.72;;;8.95;;
55330;SDS011;58851;42.984;20.336;2023-05-17T02:34:07;17.42;;;6.63;;
55330;SDS011;58851;42.984;20.336;2023-05-17T02:36:33;22.52;;;7.80;;
55330;SDS011;58851;42.984;20.336;2023-05-17T02:38:59;21.80;;;6.65;;
55330;SDS011;58851;42.984;20.336;2023-05-17T02:41:25;17.33;;;6.97;;
55330;SDS011;58851;42.984;20.336;2023-05-17T02:43:51;25.83;;;6.63;;
55330;SDS011;58851;42.984;20.336;2023-05-17T02:46:16;14.98;;;5.15;;
55330;SDS011;58851;42.984;20.336;2023-05-17T02:48:42;18.90;;;5.72;;
55330;SDS011;58851;42.984;20.336;2023-05-17T02:51:08;15.32;;;5.82;;
55330;SDS011;58851;42.984;20.336;2023-05-17T02:53:34;14.10;;;5.22;;
55330;SDS011;58851;42.984;20.336;2023-05-17T02:55:59;10.93;;;4.63;;
55330;SDS011;58851;42.984;20.336;2023-05-17T02:58:25;13.35;;;4.88;;
55330;SDS011;58851;42.984;20.336;2023-05-17T03:00:51;11.85;;;4.93;;
55330;SDS011;58851;42.984;20.336;2023-05-17T03:03:17;7.55;;;3.85;;
55330;SDS011;58851;42.984;20.336;2023-05-17T03:05:43;11.88;;;4.30;;
55330;SDS011;58851;42.984;20.336;2023-05-17T03:08:09;8.27;;;4.55;;
55330;SDS011;58851;42.984;20.336;2023-05-17T03:10:34;14.20;;;4.88;;
55330;SDS011;58851;42.984;20.336;2023-05-17T03:13:00;11.98;;;4.68;;
55330;SDS011;58851;42.984;20.336;2023-05-17T03:15:26;11.88;;;5.20;;
55330;SDS011;58851;42.984;20.336;2023-05-17T03:17:53;9.95;;;5.28;;
55330;SDS011;58851;42.984;20.336;2023-05-17T03:20:21;10.65;;;4.88;;
55330;SDS011;58851;42.984;20.336;2023-05-17T03:22:47;11.00;;;4.72;;
55330;SDS011;58851;42.984;20.336;2023-05-17T03:25:13;11.25;;;6.35;;
55330;SDS011;58851;42.984;20.336;2023-05-17T03:27:39;12.30;;;5.43;;
55330;SDS011;58851;42.984;20.336;2023-05-17T03:30:04;15.48;;;4.93;;
55330;SDS011;58851;42.984;20.336;2023-05-17T03:32:31;15.05;;;5.35;;
55330;SDS011;58851;42.984;20.336;2023-05-17T03:34:57;27.02;;;6.05;;
55330;SDS011;58851;42.984;20.336;2023-05-17T03:37:22;12.32;;;6.03;;
55330;SDS011;58851;42.984;20.336;2023-05-17T03:39:48;14.15;;;6.68;;
55330;SDS011;58851;42.984;20.336;2023-05-17T03:42:14;11.20;;;5.78;;
55330;SDS011;58851;42.984;20.336;2023-05-17T03:44:40;13.73;;;6.03;;
55330;SDS011;58851;42.984;20.336;2023-05-17T03:47:06;9.20;;;4.43;;
55330;SDS011;58851;42.984;20.336;2023-05-17T03:49:32;8.10;;;4.63;;
55330;SDS011;58851;42.984;20.336;2023-05-17T03:51:58;17.45;;;8.38;;
55330;SDS011;58851;42.984;20.336;2023-05-17T03:54:24;10.02;;;5.85;;
55330;SDS011;58851;42.984;20.336;2023-05-17T03:56:50;15.35;;;4.38;;
55330;SDS011;58851;42.984;20.336;2023-05-17T03:59:16;12.18;;;4.18;;
55330;SDS011;58851;42.984;20.336;2023-05-17T04:01:42;11.70;;;4.05;;
55330;SDS011;58851;42.984;20.336;2023-05-17T04:04:08;14.02;;;5.03;;
55330;SDS011;58851;42.984;20.336;2023-05-17T04:06:34;11.95;;;5.15;;
55330;SDS011;58851;42.984;20.336;2023-05-17T04:08:59;10.68;;;4.22;;
55330;SDS011;58851;42.984;20.336;2023-05-17T04:11:26;8.02;;;3.97;;
55330;SDS011;58851;42.984;20.336;2023-05-17T04:13:52;7.10;;;4.22;;
55330;SDS011;58851;42.984;20.336;2023-05-17T04:16:19;8.60;;;4.15;;
55330;SDS011;58851;42.984;20.336;2023-05-17T04:18:45;11.00;;;4.10;;
55330;SDS011;58851;42.984;20.336;2023-05-17T04:21:11;8.18;;;4.47;;
55330;SDS011;58851;42.984;20.336;2023-05-17T04:23:37;8.98;;;3.53;;
55330;SDS011;58851;42.984;20.336;2023-05-17T04:26:03;9.82;;;5.03;;
55330;SDS011;58851;42.984;20.336;2023-05-17T04:28:30;10.30;;;4.30;;
55330;SDS011;58851;42.984;20.336;2023-05-17T04:30:56;8.30;;;4.55;;
55330;SDS011;58851;42.984;20.336;2023-05-17T04:33:22;12.98;;;4.82;;
55330;SDS011;58851;42.984;20.336;2023-05-17T04:35:49;8.10;;;4.40;;
55330;SDS011;58851;42.984;20.336;2023-05-17T04:38:15;9.48;;;4.93;;
55330;SDS011;58851;42.984;20.336;2023-05-17T04:40:41;11.02;;;5.20;;
55330;SDS011;58851;42.984;20.336;2023-05-17T04:43:07;9.77;;;4.50;;
55330;SDS011;58851;42.984;20.336;2023-05-17T04:45:33;7.10;;;3.50;;
55330;SDS011;58851;42.984;20.336;2023-05-17T04:47:59;12.23;;;5.55;;
55330;SDS011;58851;42.984;20.336;2023-05-17T04:50:25;12.00;;;5.25;;
55330;SDS011;58851;42.984;20.336;2023-05-17T04:52:51;12.60;;;4.90;;
55330;SDS011;58851;42.984;20.336;2023-05-17T04:55:17;10.98;;;4.80;;
55330;SDS011;58851;42.984;20.336;2023-05-17T04:57:43;8.32;;;4.57;;
55330;SDS011;58851;42.984;20.336;2023-05-17T05:00:09;7.85;;;3.95;;
55330;SDS011;58851;42.984;20.336;2023-05-17T05:02:35;7.25;;;3.22;;
55330;SDS011;58851;42.984;20.336;2023-05-17T05:05:02;12.68;;;7.28;;
55330;SDS011;58851;42.984;20.336;2023-05-17T05:07:31;22.63;;;13.13;;
55330;SDS011;58851;42.984;20.336;2023-05-17T05:09:56;12.50;;;5.15;;
55330;SDS011;58851;42.984;20.336;2023-05-17T05:12:23;11.25;;;3.85;;
55330;SDS011;58851;42.984;20.336;2023-05-17T05:14:49;7.07;;;3.85;;
55330;SDS011;58851;42.984;20.336;2023-05-17T05:17:15;10.57;;;6.15;;
55330;SDS011;58851;42.984;20.336;2023-05-17T05:19:40;7.18;;;3.70;;
55330;SDS011;58851;42.984;20.336;2023-05-17T05:22:06;6.60;;;3.58;;
55330;SDS011;58851;42.984;20.336;2023-05-17T05:24:32;8.23;;;3.20;;
55330;SDS011;58851;42.984;20.336;2023-05-17T05:26:58;36.03;;;32.65;;
55330;SDS011;58851;42.984;20.336;2023-05-17T05:29:24;21.88;;;17.95;;
55330;SDS011;58851;42.984;20.336;2023-05-17T05:31:50;31.00;;;27.75;;
55330;SDS011;58851;42.984;20.336;2023-05-17T05:34:15;14.70;;;6.03;;
55330;SDS011;58851;42.984;20.336;2023-05-17T05:36:41;7.75;;;3.70;;
55330;SDS011;58851;42.984;20.336;2023-05-17T05:39:08;8.60;;;4.45;;
55330;SDS011;58851;42.984;20.336;2023-05-17T05:41:33;7.07;;;4.30;;
55330;SDS011;58851;42.984;20.336;2023-05-17T05:43:59;7.20;;;3.67;;
55330;SDS011;58851;42.984;20.336;2023-05-17T05:46:25;8.85;;;4.90;;
55330;SDS011;58851;42.984;20.336;2023-05-17T05:48:51;7.53;;;5.00;;
55330;SDS011;58851;42.984;20.336;2023-05-17T05:51:16;6.88;;;4.15;;
55330;SDS011;58851;42.984;20.336;2023-05-17T05:53:45;10.93;;;6.75;;
55330;SDS011;58851;42.984;20.336;2023-05-17T05:56:11;16.95;;;9.18;;
55330;SDS011;58851;42.984;20.336;2023-05-17T05:58:36;14.70;;;7.85;;
55330;SDS011;58851;42.984;20.336;2023-05-17T06:01:02;14.23;;;7.32;;
55330;SDS011;58851;42.984;20.336;2023-05-17T06:03:28;17.38;;;8.43;;
55330;SDS011;58851;42.984;20.336;2023-05-17T06:05:54;9.90;;;6.85;;
55330;SDS011;58851;42.984;20.336;2023-05-17T06:08:20;17.20;;;8.18;;
55330;SDS011;58851;42.984;20.336;2023-05-17T06:10:46;15.25;;;6.93;;
55330;SDS011;58851;42.984;20.336;2023-05-17T06:13:11;16.42;;;7.25;;
55330;SDS011;58851;42.984;20.336;2023-05-17T06:15:38;49.97;;;29.45;;
55330;SDS011;58851;42.984;20.336;2023-05-17T06:18:05;17.60;;;9.02;;
55330;SDS011;58851;42.984;20.336;2023-05-17T06:20:30;15.93;;;6.80;;
55330;SDS011;58851;42.984;20.336;2023-05-17T06:22:56;14.70;;;7.88;;
55330;SDS011;58851;42.984;20.336;2023-05-17T06:25:22;16.45;;;8.32;;
55330;SDS011;58851;42.984;20.336;2023-05-17T06:27:48;17.02;;;6.70;;
55330;SDS011;58851;42.984;20.336;2023-05-17T06:30:13;14.27;;;7.15;;
55330;SDS011;58851;42.984;20.336;2023-05-17T06:32:40;9.85;;;6.30;;
55330;SDS011;58851;42.984;20.336;2023-05-17T06:35:06;10.65;;;5.60;;
55330;SDS011;58851;42.984;20.336;2023-05-17T06:37:33;13.40;;;5.32;;
55330;SDS011;58851;42.984;20.336;2023-05-17T06:40:02;9.68;;;6.57;;
55330;SDS011;58851;42.984;20.336;2023-05-17T06:42:32;10.02;;;5.68;;
55330;SDS011;58851;42.984;20.336;2023-05-17T06:44:59;9.82;;;5.15;;
55330;SDS011;58851;42.984;20.336;2023-05-17T06:47:24;17.02;;;11.10;;
55330;SDS011;58851;42.984;20.336;2023-05-17T06:49:50;17.10;;;6.45;;
55330;SDS011;58851;42.984;20.336;2023-05-17T06:52:16;11.45;;;7.28;;
55330;SDS011;58851;42.984;20.336;2023-05-17T06:54:42;8.23;;;4.82;;
55330;SDS011;58851;42.984;20.336;2023-05-17T06:57:08;12.43;;;8.10;;
55330;SDS011;58851;42.984;20.336;2023-05-17T06:59:34;12.35;;;7.78;;
55330;SDS011;58851;42.984;20.336;2023-05-17T07:02:00;13.20;;;7.57;;
55330;SDS011;58851;42.984;20.336;2023-05-17T07:04:26;15.20;;;6.47;;
55330;SDS011;58851;42.984;20.336;2023-05-17T07:06:52;15.93;;;7.93;;
55330;SDS011;58851;42.984;20.336;2023-05-17T07:09:19;12.65;;;7.45;;
55330;SDS011;58851;42.984;20.336;2023-05-17T07:11:45;19.30;;;7.40;;
55330;SDS011;58851;42.984;20.336;2023-05-17T07:14:11;28.88;;;17.67;;
55330;SDS011;58851;42.984;20.336;2023-05-17T07:16:37;15.85;;;11.20;;
55330;SDS011;58851;42.984;20.336;2023-05-17T07:19:03;14.80;;;7.57;;
55330;SDS011;58851;42.984;20.336;2023-05-17T07:21:29;16.60;;;9.85;;
55330;SDS011;58851;42.984;20.336;2023-05-17T07:23:56;17.38;;;8.70;;
55330;SDS011;58851;42.984;20.336;2023-05-17T07:26:21;14.32;;;6.85;;
55330;SDS011;58851;42.984;20.336;2023-05-17T07:28:48;16.17;;;9.80;;
55330;SDS011;58851;42.984;20.336;2023-05-17T07:31:14;16.33;;;8.27;;
55330;SDS011;58851;42.984;20.336;2023-05-17T07:33:40;20.20;;;10.13;;
55330;SDS011;58851;42.984;20.336;2023-05-17T07:36:06;18.00;;;10.25;;
55330;SDS011;58851;42.984;20.336;2023-05-17T07:38:33;23.95;;;11.48;;
55330;SDS011;58851;42.984;20.336;2023-05-17T07:41:00;23.92;;;12.70;;
55330;SDS011;58851;42.984;20.336;2023-05-17T07:43:27;22.67;;;13.38;;
55330;SDS011;58851;42.984;20.336;2023-05-17T07:45:53;20.70;;;11.10;;
55330;SDS011;58851;42.984;20.336;2023-05-17T07:48:19;21.35;;;10.77;;
55330;SDS011;58851;42.984;20.336;2023-05-17T07:50:45;22.40;;;11.82;;
55330;SDS011;58851;42.984;20.336;2023-05-17T07:53:11;19.70;;;10.50;;
55330;SDS011;58851;42.984;20.336;2023-05-17T07:55:36;24.88;;;14.60;;
55330;SDS011;58851;42.984;20.336;2023-05-17T07:58:02;26.98;;;14.15;;
55330;SDS011;58851;42.984;20.336;2023-05-17T08:00:28;16.40;;;8.20;;
55330;SDS011;58851;42.984;20.336;2023-05-17T08:02:55;11.40;;;6.57;;
55330;SDS011;58851;42.984;20.336;2023-05-17T08:05:21;18.63;;;6.30;;
55330;SDS011;58851;42.984;20.336;2023-05-17T08:07:47;14.00;;;6.82;;
55330;SDS011;58851;42.984;20.336;2023-05-17T08:10:13;14.32;;;7.38;;
55330;SDS011;58851;42.984;20.336;2023-05-17T08:12:38;15.38;;;7.00;;
55330;SDS011;58851;42.984;20.336;2023-05-17T08:15:04;11.05;;;5.40;;
55330;SDS011;58851;42.984;20.336;2023-05-17T08:17:30;86.85;;;63.22;;
55330;SDS011;58851;42.984;20.336;2023-05-17T08:19:56;21.70;;;15.88;;
55330;SDS011;58851;42.984;20.336;2023-05-17T08:22:22;36.42;;;26.30;;
55330;SDS011;58851;42.984;20.336;2023-05-17T08:24:48;11.27;;;6.57;;
55330;SDS011;58851;42.984;20.336;2023-05-17T08:27:13;12.07;;;5.80;;
55330;SDS011;58851;42.984;20.336;2023-05-17T08:29:39;8.75;;;4.47;;
55330;SDS011;58851;42.984;20.336;2023-05-17T08:32:05;9.60;;;3.75;;
55330;SDS011;58851;42.984;20.336;2023-05-17T08:34:31;14.85;;;4.60;;
55330;SDS011;58851;42.984;20.336;2023-05-17T08:36:57;11.93;;;4.13;;
55330;SDS011;58851;42.984;20.336;2023-05-17T08:39:23;9.48;;;3.85;;
55330;SDS011;58851;42.984;20.336;2023-05-17T08:41:48;5.82;;;2.30;;
55330;SDS011;58851;42.984;20.336;2023-05-17T08:44:15;16.40;;;7.97;;
55330;SDS011;58851;42.984;20.336;2023-05-17T08:46:41;9.68;;;3.35;;
55330;SDS011;58851;42.984;20.336;2023-05-17T08:49:08;9.77;;;4.65;;
55330;SDS011;58851;42.984;20.336;2023-05-17T08:51:37;11.38;;;4.10;;
55330;SDS011;58851;42.984;20.336;2023-05-17T08:54:04;9.93;;;3.95;;
55330;SDS011;58851;42.984;20.336;2023-05-17T08:56:30;11.52;;;3.45;;
55330;SDS011;58851;42.984;20.336;2023-05-17T08:58:57;7.20;;;2.05;;
55330;SDS011;58851;42.984;20.336;2023-05-17T09:01:24;7.50;;;2.33;;
55330;SDS011;58851;42.984;20.336;2023-05-17T09:03:50;6.45;;;2.70;;
55330;SDS011;58851;42.984;20.336;2023-05-17T09:06:16;4.20;;;2.25;;
55330;SDS011;58851;42.984;20.336;2023-05-17T09:08:45;9.23;;;2.88;;
55330;SDS011;58851;42.984;20.336;2023-05-17T09:11:16;6.80;;;2.10;;
55330;SDS011;58851;42.984;20.336;2023-05-17T09:13:52;8.93;;;2.17;;
55330;SDS011;58851;42.984;20.336;2023-05-17T09:16:18;6.00;;;2.53;;
55330;SDS011;58851;42.984;20.336;2023-05-17T09:18:54;8.85;;;2.10;;
55330;SDS011;58851;42.984;20.336;2023-05-17T09:21:21;8.17;;;1.87;;
55330;SDS011;58851;42.984;20.336;2023-05-17T09:23:48;5.03;;;2.03;;
55330;SDS011;58851;42.984;20.336;2023-05-17T09:26:15;9.55;;;2.88;;
55330;SDS011;58851;42.984;20.336;2023-05-17T09:28:42;11.85;;;1.80;;
55330;SDS011;58851;42.984;20.336;2023-05-17T09:31:08;8.65;;;2.55;;
55330;SDS011;58851;42.984;20.336;2023-05-17T09:33:46;9.48;;;2.90;;
55330;SDS011;58851;42.984;20.336;2023-05-17T09:41:19;6.40;;;2.53;;
55330;SDS011;58851;42.984;20.336;2023-05-17T09:43:46;3.10;;;1.65;;
55330;SDS011;58851;42.984;20.336;2023-05-17T09:46:13;9.85;;;2.03;;
55330;SDS011;58851;42.984;20.336;2023-05-17T09:48:40;5.57;;;2.85;;
55330;SDS011;58851;42.984;20.336;2023-05-17T09:51:07;7.30;;;3.15;;
55330;SDS011;58851;42.984;20.336;2023-05-17T09:53:33;3.65;;;2.00;;
55330;SDS011;58851;42.984;20.336;2023-05-17T09:56:05;5.28;;;2.55;;
55330;SDS011;58851;42.984;20.336;2023-05-17T09:58:31;7.55;;;2.08;;
55330;SDS011;58851;42.984;20.336;2023-05-17T10:00:59;4.80;;;1.92;;
55330;SDS011;58851;42.984;20.336;2023-05-17T10:03:35;4.47;;;2.80;;
55330;SDS011;58851;42.984;20.336;2023-05-17T10:06:02;5.80;;;3.05;;
55330;SDS011;58851;42.984;20.336;2023-05-17T10:08:31;6.35;;;2.72;;
55330;SDS011;58851;42.984;20.336;2023-05-17T10:11:05;8.60;;;2.05;;
55330;SDS011;58851;42.984;20.336;2023-05-17T10:13:39;4.90;;;2.25;;
55330;SDS011;58851;42.984;20.336;2023-05-17T10:16:06;5.38;;;2.13;;
55330;SDS011;58851;42.984;20.336;2023-05-17T10:18:32;5.30;;;2.38;;
55330;SDS011;58851;42.984;20.336;2023-05-17T10:20:58;4.90;;;1.92;;
55330;SDS011;58851;42.984;20.336;2023-05-17T10:23:26;6.07;;;1.80;;
55330;SDS011;58851;42.984;20.336;2023-05-17T10:25:54;5.95;;;2.40;;
55330;SDS011;58851;42.984;20.336;2023-05-17T10:28:20;5.28;;;2.13;;
55330;SDS011;58851;42.984;20.336;2023-05-17T10:30:46;5.88;;;2.15;;
55330;SDS011;58851;42.984;20.336;2023-05-17T10:33:14;4.47;;;2.33;;
55330;SDS011;58851;42.984;20.336;2023-05-17T10:35:42;4.82;;;2.17;;
55330;SDS011;58851;42.984;20.336;2023-05-17T10:38:11;6.10;;;3.00;;
55330;SDS011;58851;42.984;20.336;2023-05-17T10:40:37;7.70;;;2.60;;
55330;SDS011;58851;42.984;20.336;2023-05-17T10:43:05;6.15;;;1.90;;
55330;SDS011;58851;42.984;20.336;2023-05-17T10:45:32;6.30;;;2.42;;
55330;SDS011;58851;42.984;20.336;2023-05-17T10:48:03;14.65;;;3.65;;
55330;SDS011;58851;42.984;20.336;2023-05-17T10:50:30;14.40;;;4.82;;
55330;SDS011;58851;42.984;20.336;2023-05-17T10:52:57;7.90;;;3.40;;
55330;SDS011;58851;42.984;20.336;2023-05-17T10:55:36;4.93;;;2.75;;
55330;SDS011;58851;42.984;20.336;2023-05-17T11:00:42;22.33;;;3.08;;
55330;SDS011;58851;42.984;20.336;2023-05-17T11:06:10;9.60;;;2.80;;
55330;SDS011;58851;42.984;20.336;2023-05-17T11:08:36;27.33;;;6.25;;
55330;SDS011;58851;42.984;20.336;2023-05-17T11:11:30;6.35;;;2.13;;
55330;SDS011;58851;42.984;20.336;2023-05-17T11:13:55;3.90;;;2.00;;
55330;SDS011;58851;42.984;20.336;2023-05-17T11:16:27;4.00;;;1.58;;
55330;SDS011;58851;42.984;20.336;2023-05-17T11:19:06;6.97;;;2.67;;
55330;SDS011;58851;42.984;20.336;2023-05-17T11:21:33;4.32;;;1.90;;
55330;SDS011;58851;42.984;20.336;2023-05-17T11:24:00;4.47;;;1.73;;
55330;SDS011;58851;42.984;20.336;2023-05-17T11:26:32;3.55;;;1.75;;
55330;SDS011;58851;42.984;20.336;2023-05-17T11:28:59;6.35;;;1.95;;
55330;SDS011;58851;42.984;20.336;2023-05-17T11:31:33;4.88;;;2.05;;
55330;SDS011;58851;42.984;20.336;2023-05-17T11:34:03;6.40;;;2.72;;
55330;SDS011;58851;42.984;20.336;2023-05-17T11:36:30;8.52;;;2.78;;
55330;SDS011;58851;42.984;20.336;2023-05-17T11:39:13;4.88;;;2.80;;
55330;SDS011;58851;42.984;20.336;2023-05-17T11:41:48;6.18;;;3.53;;
55330;SDS011;58851;42.984;20.336;2023-05-17T11:44:21;5.90;;;1.70;;
55330;SDS011;58851;42.984;20.336;2023-05-17T11:46:49;4.38;;;2.00;;
55330;SDS011;58851;42.984;20.336;2023-05-17T11:49:15;6.13;;;3.00;;
55330;SDS011;58851;42.984;20.336;2023-05-17T11:51:44;4.45;;;1.98;;
55330;SDS011;58851;42.984;20.336;2023-05-17T11:54:10;4.80;;;1.50;;
55330;SDS011;58851;42.984;20.336;2023-05-17T11:56:39;4.75;;;1.88;;
55330;SDS011;58851;42.984;20.336;2023-05-17T11:59:06;5.07;;;1.42;;
55330;SDS011;58851;42.984;20.336;2023-05-17T12:01:50;4.97;;;1.92;;
55330;SDS011;58851;42.984;20.336;2023-05-17T12:04:23;4.20;;;1.77;;
55330;SDS011;58851;42.984;20.336;2023-05-17T12:06:50;3.13;;;1.67;;
55330;SDS011;58851;42.984;20.336;2023-05-17T12:09:17;6.18;;;1.92;;
55330;SDS011;58851;42.984;20.336;2023-05-17T12:11:43;5.10;;;1.85;;
55330;SDS011;58851;42.984;20.336;2023-05-17T12:14:09;5.38;;;1.67;;
55330;SDS011;58851;42.984;20.336;2023-05-17T12:16:39;4.75;;;2.03;;
55330;SDS011;58851;42.984;20.336;2023-05-17T12:19:15;5.72;;;2.35;;
55330;SDS011;58851;42.984;20.336;2023-05-17T12:21:44;3.72;;;1.67;;
55330;SDS011;58851;42.984;20.336;2023-05-17T12:24:11;3.95;;;1.75;;
55330;SDS011;58851;42.984;20.336;2023-05-17T12:26:43;6.30;;;2.50;;
55330;SDS011;58851;42.984;20.336;2023-05-17T12:29:11;2.97;;;1.48;;
55330;SDS011;58851;42.984;20.336;2023-05-17T12:31:46;5.68;;;1.98;;
55330;SDS011;58851;42.984;20.336;2023-05-17T12:34:13;3.85;;;2.03;;
55330;SDS011;58851;42.984;20.336;2023-05-17T12:36:41;3.78;;;1.52;;
55330;SDS011;58851;42.984;20.336;2023-05-17T12:39:08;6.00;;;2.55;;
55330;SDS011;58851;42.984;20.336;2023-05-17T12:41:37;10.18;;;4.03;;
55330;SDS011;58851;42.984;20.336;2023-05-17T12:44:06;9.57;;;4.15;;
55330;SDS011;58851;42.984;20.336;2023-05-17T12:46:33;4.35;;;1.67;;
55330;SDS011;58851;42.984;20.336;2023-05-17T12:49:00;5.18;;;2.00;;
55330;SDS011;58851;42.984;20.336;2023-05-17T12:51:40;2.50;;;1.17;;
55330;SDS011;58851;42.984;20.336;2023-05-17T12:54:30;4.70;;;1.60;;
55330;SDS011;58851;42.984;20.336;2023-05-17T12:56:55;4.13;;;1.88;;
55330;SDS011;58851;42.984;20.336;2023-05-17T12:59:22;5.65;;;2.13;;
55330;SDS011;58851;42.984;20.336;2023-05-17T13:01:56;4.00;;;1.55;;
55330;SDS011;58851;42.984;20.336;2023-05-17T13:04:31;7.13;;;2.50;;
55330;SDS011;58851;42.984;20.336;2023-05-17T13:06:58;5.00;;;1.55;;
55330;SDS011;58851;42.984;20.336;2023-05-17T13:09:26;3.38;;;1.70;;
55330;SDS011;58851;42.984;20.336;2023-05-17T13:11:57;4.80;;;1.90;;
55330;SDS011;58851;42.984;20.336;2023-05-17T13:17:04;9.75;;;2.50;;
55330;SDS011;58851;42.984;20.336;2023-05-17T13:19:32;3.30;;;1.30;;
55330;SDS011;58851;42.984;20.336;2023-05-17T13:21:59;3.90;;;1.60;;
55330;SDS011;58851;42.984;20.336;2023-05-17T13:24:25;6.18;;;1.83;;
55330;SDS011;58851;42.984;20.336;2023-05-17T13:26:54;4.57;;;1.77;;
55330;SDS011;58851;42.984;20.336;2023-05-17T13:29:20;3.83;;;1.52;;
55330;SDS011;58851;42.984;20.336;2023-05-17T13:31:46;5.93;;;1.40;;
55330;SDS011;58851;42.984;20.336;2023-05-17T13:34:12;5.32;;;1.70;;
55330;SDS011;58851;42.984;20.336;2023-05-17T13:36:38;4.18;;;1.73;;
55330;SDS011;58851;42.984;20.336;2023-05-17T13:39:03;6.10;;;1.42;;
55330;SDS011;58851;42.984;20.336;2023-05-17T13:41:30;8.73;;;1.80;;
55330;SDS011;58851;42.984;20.336;2023-05-17T13:43:57;7.43;;;1.63;;
55330;SDS011;58851;42.984;20.336;2023-05-17T13:46:22;3.30;;;1.55;;
55330;SDS011;58851;42.984;20.336;2023-05-17T13:48:48;4.72;;;1.30;;
55330;SDS011;58851;42.984;20.336;2023-05-17T13:51:14;2.58;;;1.20;;
55330;SDS011;58851;42.984;20.336;2023-05-17T13:53:41;7.47;;;1.77;;
55330;SDS011;58851;42.984;20.336;2023-05-17T13:56:08;2.40;;;1.10;;
55330;SDS011;58851;42.984;20.336;2023-05-17T13:58:33;5.65;;;1.73;;
55330;SDS011;58851;42.984;20.336;2023-05-17T14:00:59;3.13;;;1.40;;
55330;SDS011;58851;42.984;20.336;2023-05-17T14:03:25;2.72;;;1.10;;
55330;SDS011;58851;42.984;20.336;2023-05-17T14:05:51;3.00;;;1.10;;
55330;SDS011;58851;42.984;20.336;2023-05-17T14:08:18;3.80;;;1.40;;
55330;SDS011;58851;42.984;20.336;2023-05-17T14:10:44;4.20;;;1.20;;
55330;SDS011;58851;42.984;20.336;2023-05-17T14:13:10;3.20;;;1.15;;
55330;SDS011;58851;42.984;20.336;2023-05-17T14:15:37;5.47;;;1.23;;
55330;SDS011;58851;42.984;20.336;2023-05-17T14:18:04;3.15;;;1.27;;
55330;SDS011;58851;42.984;20.336;2023-05-17T14:20:31;4.88;;;1.25;;
55330;SDS011;58851;42.984;20.336;2023-05-17T14:22:58;5.50;;;2.10;;
55330;SDS011;58851;42.984;20.336;2023-05-17T14:25:27;4.20;;;1.50;;
55330;SDS011;58851;42.984;20.336;2023-05-17T14:27:53;5.38;;;2.65;;
55330;SDS011;58851;42.984;20.336;2023-05-17T14:30:19;10.05;;;2.47;;
55330;SDS011;58851;42.984;20.336;2023-05-17T14:32:46;4.38;;;2.33;;
55330;SDS011;58851;42.984;20.336;2023-05-17T14:35:13;6.10;;;2.00;;
55330;SDS011;58851;42.984;20.336;2023-05-17T14:37:40;5.13;;;2.03;;
55330;SDS011;58851;42.984;20.336;2023-05-17T14:40:06;4.00;;;1.50;;
55330;SDS011;58851;42.984;20.336;2023-05-17T14:42:32;7.10;;;1.80;;
55330;SDS011;58851;42.984;20.336;2023-05-17T14:45:00;22.98;;;3.00;;
55330;SDS011;58851;42.984;20.336;2023-05-17T14:47:26;5.28;;;2.10;;
55330;SDS011;58851;42.984;20.336;2023-05-17T14:49:52;3.85;;;1.80;;